Time;durP1;ratioP1;P1;durP2;ratioP2;P2;SDS_P1;SDS_P2;PMS_P1;PMS_P2;Temp;Humidity;BMP_temperature;BMP_pressure;BME280_temperature;BME280_humidity;BME280_pressure;Samples;Min_cycle;Max_cycle;Signal;HPM_P1;HPM_P2
2023/09/26 00:00:21;;;;;;;24.90;17.40;;;;;;;16.31;100.00;101132.77;180453;1260;58420;-62
2023/09/26 00:04:58;;;;;;;26.00;17.40;;;;;;;16.39;100.00;101130.26;180381;1260;45956;-60
2023/09/26 00:09:02;;;;;;;25.50;19.40;;;;;;;16.41;100.00;101124.52;180459;1260;45874;-61
2023/09/26 00:13:05;;;;;;;23.60;17.60;;;;;;;16.43;100.00;101125.56;180391;1260;46172;-60
2023/09/26 00:18:05;;;;;;;20.50;16.50;;;;;;;16.43;100.00;101121.30;180272;1260;44894;-62
2023/09/26 00:22:12;;;;;;;21.70;16.30;;;;;;;16.46;100.00;101114.80;180362;1261;59411;-61
2023/09/26 00:26:15;;;;;;;26.10;18.00;;;;;;;16.47;100.00;101114.00;180369;1260;44393;-62
2023/09/26 00:30:21;;;;;;;28.50;19.30;;;;;;;16.47;100.00;101113.48;180390;1260;44975;-61
2023/09/26 00:34:28;;;;;;;23.80;17.40;;;;;;;16.44;100.00;101114.42;180273;1260;44453;-60
2023/09/26 00:38:32;;;;;;;27.50;17.90;;;;;;;16.34;100.00;101111.20;180346;1260;43754;-62
2023/09/26 00:42:37;;;;;;;19.50;15.60;;;;;;;16.29;100.00;101111.30;180354;1260;57734;-61
2023/09/26 00:46:48;;;;;;;18.90;15.50;;;;;;;16.23;100.00;101111.54;180339;1260;44002;-61
2023/09/26 00:50:56;;;;;;;14.50;12.20;;;;;;;16.14;100.00;101111.25;180355;1260;43889;-61
2023/09/26 00:55:18;;;;;;;21.00;16.30;;;;;;;16.10;100.00;101113.61;180450;1260;43742;-60
2023/09/26 00:59:26;;;;;;;19.00;15.00;;;;;;;16.03;100.00;101112.11;180293;1261;43909;-63
2023/09/26 01:03:30;;;;;;;14.70;13.00;;;;;;;15.97;100.00;101109.24;180264;1262;57920;-61
2023/09/26 01:07:35;;;;;;;21.20;12.70;;;;;;;15.95;100.00;101108.17;180297;1260;44006;-61
2023/09/26 01:11:39;;;;;;;17.20;14.80;;;;;;;15.92;100.00;101100.00;180270;1260;44688;-61
2023/09/26 01:15:43;;;;;;;20.30;15.10;;;;;;;15.82;100.00;101103.41;180243;1260;44907;-61
2023/09/26 01:19:48;;;;;;;19.20;12.40;;;;;;;15.60;100.00;101102.02;180388;1261;45828;-61
2023/09/26 01:23:56;;;;;;;43.50;21.30;;;;;;;15.43;100.00;101101.73;180300;1261;58538;-60
2023/09/26 01:28:05;;;;;;;38.70;14.60;;;;;;;15.31;100.00;101098.64;180390;1260;46029;-61
2023/09/26 01:32:18;;;;;;;21.10;15.20;;;;;;;15.15;100.00;101097.41;180570;1261;43538;-61
2023/09/26 01:36:26;;;;;;;19.30;13.60;;;;;;;15.10;100.00;101104.83;180358;1260;44814;-60
2023/09/26 01:40:30;;;;;;;17.90;13.60;;;;;;;15.13;100.00;101114.16;180222;1260;45010;-61
2023/09/26 01:44:50;;;;;;;51.40;15.80;;;;;;;15.18;100.00;101105.15;180209;1260;58413;-60
2023/09/26 01:48:53;;;;;;;32.60;14.30;;;;;;;15.27;100.00;101101.17;180180;1262;44156;-62
2023/09/26 01:52:56;;;;;;;16.60;11.00;;;;;;;15.24;100.00;101099.80;180296;1260;44500;-60
2023/09/26 01:57:00;;;;;;;25.60;11.60;;;;;;;15.07;100.00;101100.91;180320;1260;45940;-61
2023/09/26 02:01:03;;;;;;;22.40;11.90;;;;;;;14.99;100.00;101097.49;180346;1260;46016;-61
2023/09/26 02:05:12;;;;;;;17.00;12.20;;;;;;;14.93;100.00;101099.84;180307;1260;59202;-61
2023/09/26 02:09:15;;;;;;;13.20;11.50;;;;;;;14.91;100.00;101096.30;180319;1260;45972;-61
2023/09/26 02:13:19;;;;;;;14.10;10.90;;;;;;;14.93;100.00;101094.67;180260;1260;43775;-61
2023/09/26 02:17:24;;;;;;;16.20;12.10;;;;;;;14.91;100.00;101101.41;180167;1262;45940;-61
2023/09/26 02:21:29;;;;;;;18.80;13.10;;;;;;;14.95;100.00;101101.58;180348;1260;44484;-63
2023/09/26 02:25:32;;;;;;;15.20;10.90;;;;;;;14.93;100.00;101104.67;180253;1260;58494;-62
2023/09/26 02:29:35;;;;;;;26.40;15.00;;;;;;;14.84;100.00;101104.52;180281;1260;43856;-61
2023/09/26 02:33:39;;;;;;;21.50;12.70;;;;;;;14.84;100.00;101095.63;180237;1260;45926;-60
2023/09/26 02:37:43;;;;;;;20.20;13.60;;;;;;;14.85;100.00;101099.10;180237;1260;44967;-62
2023/09/26 02:41:46;;;;;;;15.70;10.90;;;;;;;14.89;100.00;101096.78;180359;1260;45010;-61
2023/09/26 02:45:50;;;;;;;16.70;11.20;;;;;;;14.81;100.00;101096.02;180253;1260;58451;-61
2023/09/26 02:49:57;;;;;;;16.80;13.60;;;;;;;14.78;100.00;101096.90;180359;1260;44640;-60
2023/09/26 02:54:00;;;;;;;12.50;11.30;;;;;;;14.84;100.00;101092.55;180340;1262;44916;-61
2023/09/26 02:58:04;;;;;;;13.50;11.20;;;;;;;14.94;100.00;101086.17;180181;1260;45953;-61
2023/09/26 03:02:11;;;;;;;13.90;10.70;;;;;;;14.92;100.00;101087.05;180298;1260;44876;-61
2023/09/26 03:06:15;;;;;;;12.20;10.50;;;;;;;14.72;100.00;101094.48;180242;1260;57222;-61
2023/09/26 03:10:19;;;;;;;13.50;10.20;;;;;;;14.59;100.00;101094.85;180245;1260;45939;-60
2023/09/26 03:14:25;;;;;;;15.60;11.70;;;;;;;14.51;100.00;101096.83;180302;1260;43629;-61
2023/09/26 03:18:29;;;;;;;13.10;9.40;;;;;;;14.54;100.00;101096.70;180319;1260;46121;-61
2023/09/26 03:22:57;;;;;;;19.40;11.80;;;;;;;14.67;100.00;101092.78;180282;1260;43619;-61
2023/09/26 03:27:01;;;;;;;14.40;10.90;;;;;;;14.79;100.00;101083.58;180251;1260;58438;-61
2023/09/26 03:32:01;;;;;;;15.80;10.50;;;;;;;14.90;100.00;101088.69;180300;1260;46071;-61
2023/09/26 03:36:06;;;;;;;11.60;9.40;;;;;;;15.14;100.00;101081.39;180291;1260;45981;-61
2023/09/26 03:40:17;;;;;;;12.30;10.70;;;;;;;15.27;100.00;101080.61;180159;1261;46080;-61
2023/09/26 03:44:21;;;;;;;15.60;10.50;;;;;;;15.26;100.00;101083.02;180231;1260;44566;-60
2023/09/26 03:48:28;;;;;;;20.40;14.50;;;;;;;15.24;100.00;101079.27;180331;1260;58701;-65
2023/09/26 03:52:32;;;;;;;22.60;12.40;;;;;;;15.30;100.00;101081.77;180330;1260;43963;-60
2023/09/26 03:56:35;;;;;;;28.10;13.30;;;;;;;15.34;100.00;101081.83;180203;1260;43601;-62
2023/09/26 04:00:38;;;;;;;25.80;14.50;;;;;;;15.36;100.00;101076.98;180364;1260;43757;-61
2023/09/26 04:04:42;;;;;;;16.40;13.90;;;;;;;15.30;100.00;101073.55;180283;1260;43863;-61
2023/09/26 04:09:14;;;;;;;15.60;8.70;;;;;;;15.15;100.00;101072.14;180320;1260;57604;-61
2023/09/26 04:13:18;;;;;;;14.30;10.10;;;;;;;14.89;100.00;101078.08;180262;1260;45959;-62
2023/09/26 04:17:21;;;;;;;16.90;9.80;;;;;;;14.83;100.00;101076.95;180285;1260;43679;-60
2023/09/26 04:21:24;;;;;;;17.20;10.70;;;;;;;14.89;100.00;101072.51;180267;1260;43930;-63
2023/09/26 04:25:32;;;;;;;21.00;9.90;;;;;;;14.86;100.00;101079.54;180262;1260;43814;-61
2023/09/26 04:29:36;;;;;;;22.80;10.50;;;;;;;14.82;100.00;101086.83;180378;1259;58037;-63
2023/09/26 04:33:39;;;;;;;10.40;9.30;;;;;;;14.74;100.00;101094.53;180403;1260;43550;-62
2023/09/26 04:37:43;;;;;;;19.40;10.40;;;;;;;14.74;100.00;101097.91;180239;1260;43533;-62
2023/09/26 04:41:47;;;;;;;18.50;10.20;;;;;;;14.78;100.00;101094.56;180182;1260;43958;-63
2023/09/26 04:46:25;;;;;;;20.00;9.80;;;;;;;14.91;100.00;101096.08;180174;1261;44702;-64
2023/09/26 04:50:29;;;;;;;22.80;12.70;;;;;;;14.83;100.00;101100.70;179610;1267;59198;-62
2023/09/26 04:54:33;;;;;;;26.70;14.10;;;;;;;14.77;100.00;101098.36;179572;1268;45097;-62
2023/09/26 04:58:38;;;;;;;38.00;24.00;;;;;;;14.67;100.00;101097.56;179641;1268;43746;-63
2023/09/26 05:02:41;;;;;;;57.60;37.40;;;;;;;14.66;100.00;101094.46;179599;1268;43801;-62
2023/09/26 05:06:45;;;;;;;67.50;35.10;;;;;;;14.72;100.00;101094.86;179539;1267;45945;-63
2023/09/26 05:10:49;;;;;;;41.40;14.20;;;;;;;14.82;100.00;101094.55;179542;1268;58468;-62
2023/09/26 05:14:53;;;;;;;22.00;13.70;;;;;;;14.78;100.00;101094.88;179580;1268;43643;-62
2023/09/26 05:19:05;;;;;;;18.90;10.70;;;;;;;14.82;100.00;101087.73;179514;1268;43733;-63
2023/09/26 05:23:08;;;;;;;18.40;11.10;;;;;;;14.92;100.00;101088.27;179668;1267;44690;-62
2023/09/26 05:27:17;;;;;;;21.00;9.00;;;;;;;15.02;100.00;101084.65;180154;1260;43623;-62
2023/09/26 05:31:20;;;;;;;21.80;9.80;;;;;;;15.07;100.00;101080.91;180113;1260;278114;-63
2023/09/26 05:35:26;;;;;;;30.00;12.80;;;;;;;15.18;100.00;101081.42;180325;1264;45174;-63
2023/09/26 05:39:30;;;;;;;19.20;10.00;;;;;;;15.29;100.00;101086.14;180482;1260;45052;-62
2023/09/26 05:43:33;;;;;;;24.70;10.30;;;;;;;15.41;100.00;101085.29;180389;1260;44886;-63
2023/09/26 05:47:36;;;;;;;17.60;10.20;;;;;;;15.45;100.00;101086.69;180328;1260;43572;-61
2023/09/26 05:51:40;;;;;;;19.70;9.50;;;;;;;15.37;100.00;101088.61;180291;1260;58449;-61
2023/09/26 05:55:43;;;;;;;15.30;9.90;;;;;;;15.39;100.00;101090.11;180296;1261;43677;-62
2023/09/26 05:59:49;;;;;;;18.10;10.40;;;;;;;15.41;100.00;101091.02;180352;1260;43659;-62
2023/09/26 06:03:53;;;;;;;13.30;9.40;;;;;;;15.43;100.00;101091.56;180175;1260;43607;-63
2023/09/26 06:07:58;;;;;;;17.10;11.10;;;;;;;15.44;100.00;101091.98;180306;1260;45892;-63
2023/09/26 06:12:07;;;;;;;17.40;12.00;;;;;;;15.50;100.00;101090.86;180306;1260;57860;-62
2023/09/26 06:16:10;;;;;;;21.40;10.40;;;;;;;15.49;100.00;101090.98;180291;1260;43591;-62
2023/09/26 06:20:14;;;;;;;23.60;12.00;;;;;;;15.51;100.00;101091.13;180410;1260;44631;-62
2023/09/26 06:24:35;;;;;;;48.60;28.00;;;;;;;15.64;100.00;101092.55;180294;1260;45998;-61
2023/09/26 06:28:38;;;;;;;63.50;51.00;;;;;;;15.84;100.00;101090.91;180310;1260;46120;-61
2023/09/26 06:32:44;;;;;;;24.50;17.10;;;;;;;15.97;100.00;101089.77;180375;1260;58910;-62
2023/09/26 06:36:51;;;;;;;15.70;13.90;;;;;;;15.98;100.00;101089.63;180272;1260;45252;-65
2023/09/26 06:41:04;;;;;;;26.50;23.60;;;;;;;15.99;100.00;101087.64;180168;1260;43563;-62
2023/09/26 06:45:10;;;;;;;17.70;15.00;;;;;;;16.07;100.00;101083.48;180128;1260;44718;-64
2023/09/26 06:49:14;;;;;;;19.70;15.70;;;;;;;16.13;100.00;101081.33;180335;1260;44177;-62
2023/09/26 06:53:19;;;;;;;18.90;16.70;;;;;;;16.08;100.00;101089.08;180221;1260;57954;-62
2023/09/26 06:57:26;;;;;;;21.80;17.20;;;;;;;16.16;100.00;101087.64;180321;1260;43662;-62
2023/09/26 07:01:30;;;;;;;22.40;18.50;;;;;;;16.24;100.00;101087.84;180398;1260;43954;-61
2023/09/26 07:05:33;;;;;;;19.20;16.80;;;;;;;16.34;100.00;101091.00;180347;1260;45953;-61
2023/09/26 07:09:38;;;;;;;18.80;15.00;;;;;;;16.38;100.00;101094.52;180243;1260;44949;-61
2023/09/26 07:13:42;;;;;;;23.40;18.60;;;;;;;16.42;100.00;101096.73;180371;1260;57817;-62
2023/09/26 07:18:05;;;;;;;33.30;29.80;;;;;;;16.54;100.00;101099.70;180337;1260;44972;-62
2023/09/26 07:22:08;;;;;;;21.90;19.70;;;;;;;16.72;100.00;101095.50;180425;1260;43694;-61
2023/09/26 07:26:17;;;;;;;26.70;23.60;;;;;;;16.87;100.00;101092.50;180409;1260;45992;-62
2023/09/26 07:30:47;;;;;;;27.60;24.50;;;;;;;17.01;100.00;101090.97;179922;1264;44568;-61
2023/09/26 07:34:53;;;;;;;22.30;18.80;;;;;;;17.16;100.00;101095.27;179934;1264;58991;-61
2023/09/26 07:38:56;;;;;;;20.00;17.90;;;;;;;17.28;100.00;101095.40;179942;1265;44792;-61
2023/09/26 07:43:02;;;;;;;19.60;15.00;;;;;;;17.36;100.00;101100.50;180015;1267;44779;-64
2023/09/26 07:47:09;;;;;;;18.40;15.50;;;;;;;17.28;100.00;101102.86;180169;1260;45975;-62
2023/09/26 07:51:16;;;;;;;19.30;17.00;;;;;;;17.43;100.00;101106.35;180354;1260;45908;-62
2023/09/26 07:55:20;;;;;;;21.70;18.70;;;;;;;17.56;100.00;101107.38;180223;1259;58603;-61
2023/09/26 07:59:24;;;;;;;21.60;18.80;;;;;;;17.71;100.00;101113.92;180513;1260;45834;-62
2023/09/26 08:03:27;;;;;;;28.70;23.40;;;;;;;17.84;100.00;101116.27;180443;1260;43778;-61
2023/09/26 08:08:23;;;;;;;23.40;18.70;;;;;;;17.97;100.00;101117.16;180246;1260;43753;-62
2023/09/26 08:12:27;;;;;;;39.90;28.20;;;;;;;17.99;100.00;101117.70;180359;1260;43629;-61
2023/09/26 08:16:33;;;;;;;37.80;29.30;;;;;;;18.05;100.00;101118.87;180318;1260;58656;-61
2023/09/26 08:21:40;;;;;;;21.30;17.00;;;;;;;18.12;100.00;101115.16;180194;1260;44809;-61
2023/09/26 08:25:43;;;;;;;27.70;22.20;;;;;;;18.26;100.00;101113.73;180362;1261;43793;-62
2023/09/26 08:29:46;;;;;;;29.60;20.50;;;;;;;18.37;100.00;101109.20;180342;1260;45878;-62
2023/09/26 08:33:51;;;;;;;24.10;20.10;;;;;;;18.52;100.00;101109.31;180084;1260;43982;-62
2023/09/26 08:37:55;;;;;;;25.60;20.80;;;;;;;18.65;100.00;101107.44;180269;1260;58617;-61
2023/09/26 08:42:03;;;;;;;21.20;17.00;;;;;;;18.78;100.00;101101.59;180263;1260;46048;-63
2023/09/26 08:46:07;;;;;;;23.60;19.40;;;;;;;18.88;100.00;101101.36;180344;1262;44961;-62
2023/09/26 08:50:13;;;;;;;30.00;23.30;;;;;;;18.98;100.00;101100.45;180291;1261;45878;-61
2023/09/26 08:54:20;;;;;;;30.90;20.10;;;;;;;19.07;100.00;101102.26;180320;1261;43660;-63
2023/09/26 08:58:29;;;;;;;27.90;23.20;;;;;;;19.19;100.00;101097.92;180266;1261;59487;-61
2023/09/26 09:02:32;;;;;;;29.90;21.30;;;;;;;19.28;100.00;101094.28;180105;1260;45260;-63
2023/09/26 09:06:39;;;;;;;28.80;22.90;;;;;;;19.41;100.00;101089.83;180071;1261;46007;-61
2023/09/26 09:10:52;;;;;;;33.70;23.40;;;;;;;19.56;100.00;101087.61;180360;1261;45983;-62
2023/09/26 09:14:56;;;;;;;26.00;21.50;;;;;;;19.64;100.00;101087.81;180273;1260;44595;-61
2023/09/26 09:18:59;;;;;;;31.30;21.40;;;;;;;19.67;100.00;101082.98;180276;1262;58044;-62
2023/09/26 09:23:09;;;;;;;33.00;23.10;;;;;;;19.68;100.00;101084.46;180388;1260;43570;-62
2023/09/26 09:27:13;;;;;;;29.80;22.50;;;;;;;19.68;100.00;101086.39;180261;1262;43684;-63
2023/09/26 09:31:17;;;;;;;29.10;20.70;;;;;;;19.75;100.00;101083.41;180238;1261;44567;-61
2023/09/26 09:35:26;;;;;;;31.60;24.20;;;;;;;19.81;100.00;101078.19;180230;1262;43797;-61
2023/09/26 09:39:30;;;;;;;33.70;25.30;;;;;;;19.89;100.00;101081.73;180074;1260;58934;-61
2023/09/26 09:43:38;;;;;;;30.20;25.40;;;;;;;19.97;100.00;101079.45;180021;1261;46123;-61
2023/09/26 09:47:46;;;;;;;;;;;;;;;19.99;100.00;101074.02;180353;1264;44485;-61
2023/09/26 09:51:57;;;;;;;31.70;23.80;;;;;;;20.10;100.00;101073.71;180115;1262;44658;-61
2023/09/26 09:56:07;;;;;;;31.20;24.70;;;;;;;20.19;100.00;101072.92;180232;1261;43745;-62
2023/09/26 10:00:13;;;;;;;32.90;24.80;;;;;;;20.39;100.00;101066.89;180273;1260;58951;-61
2023/09/26 10:04:18;;;;;;;;;;;;;;;20.54;100.00;101060.16;180217;1262;43529;-61
2023/09/26 10:25:15;;;;;;;26.00;19.50;;;;;;;20.92;100.00;101032.73;181318;1261;578870;-61
2023/09/26 10:29:25;;;;;;;23.10;20.20;;;;;;;21.02;100.00;101026.77;185851;1231;58812;-60
2023/09/26 10:33:29;;;;;;;25.60;22.90;;;;;;;21.13;100.00;101024.14;186052;1231;44866;-60
2023/09/26 10:37:50;;;;;;;27.40;21.60;;;;;;;21.22;100.00;101025.11;185850;1231;45863;-60
2023/09/26 10:42:09;;;;;;;29.20;21.90;;;;;;;21.28;100.00;101027.57;186124;1231;43536;-60
2023/09/26 10:46:34;;;;;;;27.20;20.30;;;;;;;21.34;100.00;101016.34;185843;1234;46018;-61
2023/09/26 10:50:41;;;;;;;31.20;21.00;;;;;;;21.42;100.00;101016.73;185958;1231;58468;-60
2023/09/26 10:54:43;;;;;;;27.20;20.70;;;;;;;21.55;100.00;101014.05;185934;1231;46059;-61
2023/09/26 10:58:45;;;;;;;27.60;20.60;;;;;;;21.70;100.00;101010.80;185907;1231;43435;-60
2023/09/26 11:02:48;;;;;;;50.60;39.00;;;;;;;21.72;100.00;101011.33;186098;1231;43852;-61
2023/09/26 11:07:10;;;;;;;29.80;23.50;;;;;;;21.72;100.00;101009.63;185999;1231;44434;-63
2023/09/26 11:11:18;;;;;;;26.70;20.30;;;;;;;21.86;100.00;101006.52;185867;1235;58424;-60
2023/09/26 11:15:21;;;;;;;26.60;19.10;;;;;;;21.98;100.00;101002.26;185742;1231;43653;-61
2023/09/26 11:19:24;;;;;;;30.10;18.70;;;;;;;22.01;100.00;100997.48;185919;1231;43835;-61
2023/09/26 11:23:39;;;;;;;24.30;19.00;;;;;;;22.15;100.00;100994.60;186043;1231;45057;-62
2023/09/26 11:27:48;;;;;;;26.10;17.50;;;;;;;22.28;100.00;100991.04;186132;1231;43847;-60
2023/09/26 11:31:58;;;;;;;40.20;21.50;;;;;;;22.36;100.00;100988.12;185867;1231;59895;-60
2023/09/26 11:36:01;;;;;;;27.70;21.30;;;;;;;22.52;100.00;100984.19;185781;1231;43580;-60
2023/09/26 11:40:07;;;;;;;124.10;104.80;;;;;;;22.67;100.00;100976.08;186024;1231;45837;-62
2023/09/26 11:44:17;;;;;;;47.50;38.60;;;;;;;22.82;100.00;100974.66;185824;1231;43519;-62
2023/09/26 11:48:47;;;;;;;40.50;27.30;;;;;;;22.93;100.00;100973.33;185913;1231;44495;-61
2023/09/26 11:52:50;;;;;;;29.70;20.50;;;;;;;22.98;100.00;100969.39;185862;1231;57831;-63
2023/09/26 11:56:56;;;;;;;24.20;17.90;;;;;;;22.99;100.00;100966.10;185952;1231;44954;-60
2023/09/26 12:00:58;;;;;;;42.10;31.20;;;;;;;22.95;100.00;100960.21;185901;1231;45897;-61
2023/09/26 12:05:01;;;;;;;44.20;30.50;;;;;;;22.97;100.00;100955.44;185884;1231;44844;-61
2023/09/26 12:09:08;;;;;;;30.40;22.10;;;;;;;23.07;100.00;100955.88;185695;1231;44841;-61
2023/09/26 12:13:12;;;;;;;33.20;23.90;;;;;;;23.13;100.00;100955.98;185855;1231;58395;-61
2023/09/26 12:17:14;;;;;;;50.90;27.10;;;;;;;23.22;100.00;100954.12;185811;1231;45986;-60
2023/09/26 12:21:16;;;;;;;33.80;24.00;;;;;;;23.29;100.00;100955.46;185742;1231;45910;-61
2023/09/26 12:25:23;;;;;;;42.70;33.50;;;;;;;23.41;100.00;100947.23;186046;1231;44966;-62
2023/09/26 12:29:25;;;;;;;24.20;18.90;;;;;;;23.50;100.00;100944.75;186017;1234;45990;-61
2023/09/26 12:33:27;;;;;;;25.70;18.20;;;;;;;23.56;99.99;100945.05;185939;1232;57266;-60
2023/09/26 12:37:29;;;;;;;30.70;24.50;;;;;;;23.60;99.95;100943.92;185828;1231;45896;-62
2023/09/26 12:41:34;;;;;;;23.60;17.00;;;;;;;23.67;99.90;100933.83;185878;1235;43588;-61
2023/09/26 12:45:41;;;;;;;23.10;15.10;;;;;;;23.76;98.90;100928.40;185932;1234;45803;-62
2023/09/26 12:49:49;;;;;;;21.40;15.30;;;;;;;23.82;97.83;100926.52;185985;1236;44751;-61
2023/09/26 12:53:52;;;;;;;19.50;14.60;;;;;;;23.90;98.57;100918.69;185999;1231;59114;-60
2023/09/26 12:57:54;;;;;;;16.90;13.80;;;;;;;23.90;97.71;100914.71;185930;1231;45932;-61
2023/09/26 13:01:56;;;;;;;23.20;17.60;;;;;;;24.02;97.90;100911.33;186113;1231;45295;-59
2023/09/26 13:05:58;;;;;;;20.60;15.50;;;;;;;24.11;98.25;100911.07;185868;1232;44835;-61
2023/09/26 13:10:00;;;;;;;25.80;15.10;;;;;;;24.24;96.89;100908.70;185964;1231;43498;-61
2023/09/26 13:14:03;;;;;;;20.70;16.40;;;;;;;24.28;95.25;100905.55;185961;1231;58399;-59
2023/09/26 13:18:06;;;;;;;22.10;18.30;;;;;;;24.33;95.78;100902.27;185650;1232;43530;-61
2023/09/26 13:22:11;;;;;;;20.20;14.90;;;;;;;24.38;96.25;100895.64;186004;1236;43538;-60
2023/09/26 13:37:10;;;;;;;24.20;17.90;;;;;;;24.77;93.47;100883.98;177060;1285;582167;-60
2023/09/26 13:41:14;;;;;;;30.80;23.40;;;;;;;24.82;91.36;100875.13;179774;1263;461665;-59
2023/09/26 13:45:20;;;;;;;25.90;16.50;;;;;;;24.84;91.84;100871.67;180014;1263;44594;-62
2023/09/26 13:49:27;;;;;;;34.30;23.80;;;;;;;24.84;91.84;100868.95;180061;1264;45926;-64
2023/09/26 13:53:30;;;;;;;23.20;16.90;;;;;;;24.82;92.48;100867.85;180064;1264;43721;-63
2023/09/26 13:57:34;;;;;;;23.00;18.50;;;;;;;24.77;92.55;100865.35;180036;1264;45830;-62
2023/09/26 14:01:45;;;;;;;23.20;18.60;;;;;;;24.76;92.52;100863.48;180057;1266;58387;-61
2023/09/26 14:05:48;;;;;;;22.60;17.50;;;;;;;24.70;92.55;100860.56;179979;1263;44917;-61
2023/09/26 14:09:56;;;;;;;34.00;24.00;;;;;;;24.74;92.36;100857.73;179750;1264;44322;-62
2023/09/26 14:13:59;;;;;;;26.40;19.50;;;;;;;24.81;91.87;100853.66;179938;1264;43597;-61
2023/09/26 14:18:03;;;;;;;22.90;17.90;;;;;;;24.92;92.87;100851.16;179886;1266;45974;-62
2023/09/26 14:22:08;;;;;;;25.30;17.60;;;;;;;24.91;92.61;100854.01;179989;1264;58621;-61
2023/09/26 14:26:11;;;;;;;25.10;18.10;;;;;;;24.90;92.35;100850.70;180286;1264;44583;-63
2023/09/26 14:30:15;;;;;;;26.10;18.70;;;;;;;24.93;92.48;100849.95;180135;1261;43820;-62
2023/09/26 14:34:18;;;;;;;34.50;19.20;;;;;;;24.96;92.78;100846.83;180315;1264;43510;-62
2023/09/26 14:38:22;;;;;;;22.50;15.00;;;;;;;24.96;91.48;100847.78;180476;1262;43982;-62
2023/09/26 14:42:25;;;;;;;18.90;14.60;;;;;;;24.91;90.85;100842.75;180382;1263;58561;-61
2023/09/26 14:46:30;;;;;;;28.60;19.30;;;;;;;24.86;92.08;100840.48;180356;1263;43916;-62
2023/09/26 14:50:37;;;;;;;37.70;20.80;;;;;;;24.85;92.00;100836.09;180245;1263;43581;-62
2023/09/26 14:54:40;;;;;;;20.80;15.20;;;;;;;24.87;91.83;100835.85;180372;1264;43752;-61
2023/09/26 14:58:49;;;;;;;30.60;22.10;;;;;;;24.87;92.17;100834.84;180449;1262;44656;-61
2023/09/26 15:02:54;;;;;;;26.10;16.80;;;;;;;24.84;92.49;100825.25;180140;1262;58178;-60
2023/09/26 15:06:58;;;;;;;22.30;16.20;;;;;;;24.76;93.22;100826.27;180376;1262;45999;-61
2023/09/26 15:11:03;;;;;;;24.00;19.00;;;;;;;24.72;93.55;100825.27;180871;1257;43621;-62
2023/09/26 15:15:08;;;;;;;26.20;17.10;;;;;;;24.67;93.75;100820.72;180984;1256;43683;-62
2023/09/26 15:19:13;;;;;;;21.60;17.20;;;;;;;24.65;94.08;100816.28;180945;1256;45841;-62
2023/09/26 15:23:16;;;;;;;23.60;18.50;;;;;;;24.60;94.23;100812.08;180884;1257;58859;-62
2023/09/26 15:27:21;;;;;;;24.50;17.10;;;;;;;24.56;94.64;100814.17;180903;1257;43490;-61
2023/09/26 15:31:25;;;;;;;21.80;15.40;;;;;;;24.42;94.57;100813.10;180650;1257;43847;-61
2023/09/26 15:35:56;;;;;;;23.20;16.30;;;;;;;24.37;95.08;100811.41;180691;1256;44131;-61
2023/09/26 15:40:00;;;;;;;25.30;16.20;;;;;;;24.36;95.58;100811.36;180891;1257;43984;-61
2023/09/26 15:44:06;;;;;;;19.40;14.30;;;;;;;24.31;95.88;100810.77;180989;1257;57156;-62
2023/09/26 15:48:11;;;;;;;26.10;18.40;;;;;;;24.28;96.68;100806.98;180844;1257;45851;-61
2023/09/26 15:52:17;;;;;;;30.20;22.50;;;;;;;24.22;97.10;100811.36;180823;1257;44920;-61
2023/09/26 15:56:23;;;;;;;27.10;17.90;;;;;;;24.13;97.57;100811.53;180789;1256;44240;-61
2023/09/26 16:00:28;;;;;;;34.10;24.10;;;;;;;24.04;98.35;100811.49;180708;1257;43528;-60
2023/09/26 16:04:33;;;;;;;34.50;24.60;;;;;;;23.96;99.33;100810.10;180759;1257;59778;-61
2023/09/26 16:08:43;;;;;;;24.90;19.70;;;;;;;23.87;99.89;100811.14;180910;1256;43878;-61
2023/09/26 16:12:47;;;;;;;32.90;23.40;;;;;;;23.77;100.00;100814.94;180735;1256;45976;-61
2023/09/26 16:17:11;;;;;;;22.60;19.20;;;;;;;23.66;100.00;100810.83;180781;1257;45073;-62
2023/09/26 16:21:25;;;;;;;23.80;17.60;;;;;;;23.56;100.00;100811.84;180755;1258;43649;-60
2023/09/26 16:25:29;;;;;;;28.30;17.00;;;;;;;23.43;100.00;100807.89;180930;1256;58889;-61
2023/09/26 16:29:40;;;;;;;22.50;16.50;;;;;;;23.32;100.00;100807.97;180854;1256;44766;-60
2023/09/26 16:33:44;;;;;;;24.10;16.00;;;;;;;23.19;100.00;100810.32;180872;1256;46337;-60
2023/09/26 16:37:49;;;;;;;29.20;21.80;;;;;;;23.09;100.00;100814.36;180800;1257;43676;-60
2023/09/26 16:41:53;;;;;;;21.80;15.50;;;;;;;22.99;100.00;100815.02;181105;1256;46037;-60
2023/09/26 16:45:56;;;;;;;21.80;15.00;;;;;;;22.88;100.00;100817.73;181006;1256;57467;-60
